Sevier River / Vermillion Canal




Date Battery Voltage (V) Canal Stage above Flume (ft) Canal Stage below Flume (ft) Canal Flow (cfs) Canal Gate Height (%) River Stage at Dam (ft) River Flow at Dam (cfs) Pond Stage at Gate (ft) Canal Stage Offset (ft) River Stage below Dam (ft) River Flow below Dam (cfs) Submergence Mossing CFS Set (cfs) Gate Set (%) Auto CFS Auto Gate Gate Warning Settle Count Gate Up Total Gate Down Total
09/01/2017 13.01 0.67 -0.38 17.2 -1.90 0 0.13 4.40
09/02/2017 12.94 0.90 -0.31 27.2 -0.85 1 0.27 18.49
09/03/2017 12.93 0.90 -0.32 27.2 0.16 9 0.79 69.96
09/04/2017 12.92 0.91 -0.32 27.4 0.23 16 0.66 55.76
09/05/2017 12.95 0.87 -0.39 25.4 -0.01 5 0.28 19.33
09/06/2017 12.99 0.85 -0.39 24.6 0.10 8 0.57 47.37
09/07/2017 12.98 0.86 -0.36 25.0 0.31 25 0.45 30.70
09/08/2017 13.07 0.86 -0.36 25.2 0.36 30 0.40 24.53
09/09/2017 12.92 0.86 -0.36 25.2 0.40 36 0.45 28.99
09/10/2017 12.99 0.87 -0.34 25.5 0.64 74 0.80 68.45
09/11/2017 12.97 0.87 -0.32 25.6 0.60 67 0.73 59.78
09/12/2017 12.92 0.87 -0.32 25.5 0.42 40 0.50 34.34
09/13/2017 13.02 0.87 -0.31 25.4 0.45 43 0.53 36.62
09/14/2017 12.74 0.87 -0.30 25.6 0.48 47 0.56 40.59
09/15/2017 12.88 0.87 -0.30 25.4 0.66 77 0.84 72.94
09/16/2017 11.57 0.70 -0.43 18.2 0.69 83 0.87 77.21
09/17/2017 12.26 0.70 -0.44 18.0 0.62 71 0.77 65.12
09/18/2017 12.52 0.68 -0.44 17.4 0.57 63 0.73 59.91
09/19/2017 12.60 0.67 -0.45 16.9 0.43 40 0.54 38.00
09/20/2017 12.67 0.65 -0.46 16.2 0.40 36 0.50 33.68
09/21/2017 12.72 0.61 -0.46 14.5 0.34 30 0.44 29.24
09/22/2017 12.78 0.56 -0.46 12.7 0.35 32 0.45 31.18
09/23/2017 12.72 0.55 -0.47 12.1 0.35 32 0.44 30.36
09/24/2017 12.75 0.54 -0.47 12.0 0.35 32 0.45 31.72
09/25/2017 12.95 0.54 -0.47 12.0 0.38 37 0.48 34.69
09/26/2017 12.96 0.39 -0.47 7.4 0.38 37 0.48 34.56
09/27/2017 13.05 0.28 -0.47 4.1 0.40 39 0.50 36.33
09/28/2017 13.04 0.27 -0.47 3.9 0.39 37 0.49 35.23
09/29/2017 13.14 0.26 -0.47 3.6 0.42 42 0.52 39.13
09/30/2017 13.02 0.24 -0.47 3.3 0.46 49 0.57 45.29
Average 18.3 38 41.13 0.00
Maximum 27.4 83 77.21
Minimum 3.3 0 4.40
Total Volume (AF) 1,090.1 2,257 2,446.82 0.00